Time;durP1;ratioP1;P1;durP2;ratioP2;P2;SDS_P1;SDS_P2;PMS_P1;PMS_P2;Temp;Humidity;BMP_temperature;BMP_pressure;BME280_temperature;BME280_humidity;BME280_pressure;Samples;Min_cycle;Max_cycle;Signal;HPM_P1;HPM_P2
2022/07/07 00:01:26;;;;;;;5.95;2.00;;;;;;;;;;3367835;42;20143;-52
2022/07/07 00:03:53;;;;;;;8.23;2.20;;;;;;;;;;3367601;42;20570;-53
2022/07/07 00:06:19;;;;;;;7.20;1.92;;;;;;;;;;3351662;42;20087;-52
2022/07/07 00:08:46;;;;;;;6.73;2.10;;;;;;;;;;3358964;42;20106;-50
2022/07/07 00:11:14;;;;;;;7.05;2.10;;;;;;;;;;3368055;42;20579;-51
2022/07/07 00:13:40;;;;;;;7.70;2.28;;;;;;;;;;3367610;42;20170;-52
2022/07/07 00:16:06;;;;;;;5.50;2.10;;;;;;;;;;3367786;42;20088;-50
2022/07/07 00:18:32;;;;;;;5.07;1.80;;;;;;;;;;3367815;42;20075;-49
2022/07/07 00:20:58;;;;;;;5.57;2.10;;;;;;;;;;3368429;42;20158;-54
2022/07/07 00:23:24;;;;;;;5.25;1.85;;;;;;;;;;3370980;42;20083;-52
2022/07/07 00:25:49;;;;;;;4.80;1.83;;;;;;;;;;3368491;42;20083;-51
2022/07/07 00:28:15;;;;;;;5.17;2.03;;;;;;;;;;3367364;42;20099;-48
2022/07/07 00:30:42;;;;;;;6.20;2.10;;;;;;;;;;3367439;42;20107;-53
2022/07/07 00:33:08;;;;;;;6.85;2.20;;;;;;;;;;3368141;42;20173;-54
2022/07/07 00:35:34;;;;;;;5.20;1.90;;;;;;;;;;3367620;42;20279;-53
2022/07/07 00:38:00;;;;;;;5.80;2.00;;;;;;;;;;3367477;42;20087;-55
2022/07/07 00:40:26;;;;;;;5.80;1.90;;;;;;;;;;3367778;42;20096;-51
2022/07/07 00:42:52;;;;;;;5.25;2.10;;;;;;;;;;3367547;42;20084;-54
2022/07/07 00:45:18;;;;;;;5.72;2.08;;;;;;;;;;3367540;42;20088;-52
2022/07/07 00:47:43;;;;;;;5.00;1.95;;;;;;;;;;3367266;42;20229;-52
2022/07/07 00:50:10;;;;;;;5.67;2.13;;;;;;;;;;3367716;42;20150;-53
2022/07/07 00:52:36;;;;;;;5.50;1.80;;;;;;;;;;3358648;42;20103;-56
2022/07/07 00:55:02;;;;;;;5.57;1.70;;;;;;;;;;3367195;42;20107;-50
2022/07/07 00:57:28;;;;;;;6.18;2.30;;;;;;;;;;3367502;42;20554;-53
2022/07/07 01:00:23;;;;;;;7.27;1.80;;;;;;;;;;3367163;42;20159;-53
2022/07/07 01:02:49;;;;;;;5.18;2.00;;;;;;;;;;3367125;42;20547;-50
2022/07/07 01:05:16;;;;;;;5.07;1.80;;;;;;;;;;3367555;42;20581;-47
2022/07/07 01:07:42;;;;;;;5.10;1.80;;;;;;;;;;3367196;42;20502;-53
2022/07/07 01:10:09;;;;;;;5.80;2.13;;;;;;;;;;3358317;42;20574;-55
2022/07/07 01:12:36;;;;;;;5.88;2.03;;;;;;;;;;3367068;42;20122;-54
2022/07/07 01:15:03;;;;;;;4.90;1.77;;;;;;;;;;3358325;42;20135;-50
2022/07/07 01:17:29;;;;;;;5.80;1.70;;;;;;;;;;3366999;42;20092;-53
2022/07/07 01:19:55;;;;;;;6.18;2.00;;;;;;;;;;3367197;42;20144;-49
2022/07/07 01:22:23;;;;;;;4.50;1.70;;;;;;;;;;3367056;42;20084;-52
2022/07/07 01:24:49;;;;;;;6.35;1.90;;;;;;;;;;3358301;42;20087;-49
2022/07/07 01:27:19;;;;;;;6.53;1.70;;;;;;;;;;3367216;42;20087;-52
2022/07/07 01:29:46;;;;;;;5.80;1.92;;;;;;;;;;3366987;42;20162;-48
2022/07/07 01:32:12;;;;;;;5.70;1.63;;;;;;;;;;3367093;42;20080;-55
2022/07/07 01:34:40;;;;;;;6.18;1.80;;;;;;;;;;3366860;42;20088;-49
2022/07/07 01:37:06;;;;;;;4.47;1.50;;;;;;;;;;3366915;42;20136;-48
2022/07/07 01:39:32;;;;;;;4.97;1.88;;;;;;;;;;3367307;42;20494;-49
2022/07/07 01:41:58;;;;;;;6.10;1.90;;;;;;;;;;3366866;42;20092;-49
2022/07/07 01:44:24;;;;;;;9.03;1.90;;;;;;;;;;3367025;42;20075;-48
2022/07/07 01:46:50;;;;;;;4.88;1.90;;;;;;;;;;3366986;42;20162;-50
2022/07/07 01:49:16;;;;;;;5.72;1.70;;;;;;;;;;3366769;42;20554;-50
2022/07/07 01:51:42;;;;;;;5.70;1.60;;;;;;;;;;3366402;42;20242;-51
2022/07/07 01:54:08;;;;;;;7.75;2.00;;;;;;;;;;3366627;42;20594;-49
2022/07/07 01:56:34;;;;;;;6.32;1.73;;;;;;;;;;3366540;42;20114;-48
2022/07/07 01:59:00;;;;;;;5.18;1.80;;;;;;;;;;3366751;42;20498;-51
2022/07/07 02:01:26;;;;;;;5.60;1.80;;;;;;;;;;3366906;42;20092;-55
2022/07/07 02:03:51;;;;;;;6.55;1.80;;;;;;;;;;3366876;42;20590;-48
2022/07/07 02:06:17;;;;;;;5.15;1.70;;;;;;;;;;3367052;42;20150;-51
2022/07/07 02:08:43;;;;;;;4.75;1.60;;;;;;;;;;3366990;42;20475;-48
2022/07/07 02:11:12;;;;;;;5.20;1.70;;;;;;;;;;3366621;42;20080;-53
2022/07/07 02:13:41;;;;;;;5.20;2.05;;;;;;;;;;3367179;42;20588;-51
2022/07/07 02:16:07;;;;;;;8.77;2.00;;;;;;;;;;3366858;42;20598;-54
2022/07/07 02:18:35;;;;;;;5.10;1.88;;;;;;;;;;3358047;42;20107;-52
2022/07/07 02:21:02;;;;;;;7.13;1.80;;;;;;;;;;3358018;42;20276;-56
2022/07/07 02:23:28;;;;;;;4.75;1.80;;;;;;;;;;3366955;42;20161;-50
2022/07/07 02:25:54;;;;;;;5.22;1.80;;;;;;;;;;3366590;42;20144;-52
2022/07/07 02:28:20;;;;;;;6.10;1.90;;;;;;;;;;3366977;42;20184;-51
2022/07/07 02:30:47;;;;;;;7.00;2.13;;;;;;;;;;3367029;42;20593;-50
2022/07/07 02:33:13;;;;;;;8.27;1.92;;;;;;;;;;3350105;42;20587;-57
2022/07/07 02:35:39;;;;;;;7.85;2.03;;;;;;;;;;3366777;42;20135;-52
2022/07/07 02:38:05;;;;;;;7.45;2.00;;;;;;;;;;3366946;42;20288;-49
2022/07/07 02:40:31;;;;;;;7.10;1.90;;;;;;;;;;3367024;42;20088;-50
2022/07/07 02:42:57;;;;;;;8.60;1.80;;;;;;;;;;3366956;42;20083;-51
2022/07/07 02:45:23;;;;;;;5.82;2.00;;;;;;;;;;3366829;42;20111;-47
2022/07/07 02:47:49;;;;;;;6.32;1.73;;;;;;;;;;3366632;42;20080;-49
2022/07/07 02:50:15;;;;;;;9.70;2.20;;;;;;;;;;3366710;42;20636;-51
2022/07/07 02:52:41;;;;;;;5.30;1.70;;;;;;;;;;3368590;42;20295;-51
2022/07/07 02:55:07;;;;;;;7.90;1.63;;;;;;;;;;3369272;42;20087;-49
2022/07/07 02:57:33;;;;;;;6.10;1.50;;;;;;;;;;3369735;42;20132;-52
2022/07/07 02:59:59;;;;;;;5.47;1.80;;;;;;;;;;3366513;42;20122;-51
2022/07/07 03:02:25;;;;;;;4.80;1.70;;;;;;;;;;3369815;42;20286;-48
2022/07/07 03:04:51;;;;;;;5.75;1.70;;;;;;;;;;3361128;42;20095;-48
2022/07/07 03:07:19;;;;;;;5.70;1.90;;;;;;;;;;3369444;42;20080;-56
2022/07/07 03:09:45;;;;;;;5.97;1.90;;;;;;;;;;3370401;42;20161;-53
2022/07/07 03:12:11;;;;;;;5.05;1.80;;;;;;;;;;3371034;42;20095;-54
2022/07/07 03:14:37;;;;;;;7.25;2.00;;;;;;;;;;3371266;42;20703;-54
2022/07/07 03:17:04;;;;;;;6.13;2.00;;;;;;;;;;3370857;42;20084;-53
2022/07/07 03:19:30;;;;;;;7.40;2.10;;;;;;;;;;3371251;42;20147;-48
2022/07/07 03:21:56;;;;;;;5.03;1.80;;;;;;;;;;3370763;42;20079;-50
2022/07/07 03:24:22;;;;;;;4.63;1.77;;;;;;;;;;3370030;42;20106;-52
2022/07/07 03:26:48;;;;;;;6.90;1.80;;;;;;;;;;3370894;42;20087;-50
2022/07/07 03:29:16;;;;;;;5.97;1.80;;;;;;;;;;3371116;42;20088;-56
2022/07/07 03:31:42;;;;;;;6.60;2.20;;;;;;;;;;3366278;42;20088;-49
2022/07/07 03:34:08;;;;;;;5.93;2.10;;;;;;;;;;3362915;42;20475;-55
2022/07/07 03:36:34;;;;;;;7.03;2.05;;;;;;;;;;3362264;42;20193;-49
2022/07/07 03:39:00;;;;;;;6.75;2.00;;;;;;;;;;3361407;42;20096;-49
2022/07/07 03:41:26;;;;;;;5.60;1.83;;;;;;;;;;3350260;42;20092;-49
2022/07/07 03:43:52;;;;;;;8.45;2.38;;;;;;;;;;3360893;42;20095;-55
2022/07/07 03:46:18;;;;;;;8.45;2.40;;;;;;;;;;3360894;42;20092;-51
2022/07/07 03:48:44;;;;;;;5.72;2.10;;;;;;;;;;3360643;42;20220;-49
2022/07/07 03:51:10;;;;;;;6.37;2.00;;;;;;;;;;3360875;42;20084;-50
2022/07/07 03:53:36;;;;;;;5.90;2.03;;;;;;;;;;3352033;42;20506;-48
2022/07/07 03:56:02;;;;;;;6.13;2.10;;;;;;;;;;3360736;42;20084;-50
2022/07/07 03:58:28;;;;;;;5.47;2.00;;;;;;;;;;3360949;42;20143;-51
2022/07/07 04:00:54;;;;;;;6.57;2.10;;;;;;;;;;3366624;42;20621;-49
2022/07/07 04:03:20;;;;;;;11.93;2.30;;;;;;;;;;3368001;42;20087;-50
2022/07/07 04:05:46;;;;;;;5.25;2.20;;;;;;;;;;3368277;42;20084;-54
2022/07/07 04:08:12;;;;;;;4.93;2.05;;;;;;;;;;3368310;42;20878;-49
2022/07/07 04:10:38;;;;;;;7.27;2.30;;;;;;;;;;3369519;42;20092;-49
2022/07/07 04:13:04;;;;;;;5.97;2.03;;;;;;;;;;3368514;42;20138;-50
2022/07/07 04:15:30;;;;;;;5.80;2.10;;;;;;;;;;3368474;42;20087;-48
2022/07/07 04:17:56;;;;;;;7.80;2.20;;;;;;;;;;3368604;42;20110;-50
2022/07/07 04:20:22;;;;;;;7.00;2.20;;;;;;;;;;3368203;42;20102;-49
2022/07/07 04:22:48;;;;;;;6.65;2.08;;;;;;;;;;3368226;42;20095;-53
2022/07/07 04:25:14;;;;;;;5.28;2.10;;;;;;;;;;3368044;42;20090;-49
2022/07/07 04:27:40;;;;;;;6.88;1.88;;;;;;;;;;3360195;42;20678;-56
2022/07/07 04:30:06;;;;;;;5.82;2.10;;;;;;;;;;3367986;42;20091;-54
2022/07/07 04:32:32;;;;;;;5.60;2.15;;;;;;;;;;3367879;42;20087;-51
2022/07/07 04:34:58;;;;;;;7.15;2.05;;;;;;;;;;3368118;42;20095;-53
2022/07/07 04:37:24;;;;;;;6.53;2.30;;;;;;;;;;3368780;42;20111;-51
2022/07/07 04:39:50;;;;;;;7.22;2.20;;;;;;;;;;3367481;42;20091;-52
2022/07/07 04:42:16;;;;;;;8.13;2.42;;;;;;;;;;3367465;42;20674;-55
2022/07/07 04:44:42;;;;;;;8.90;2.70;;;;;;;;;;3367778;42;20072;-50
2022/07/07 04:47:08;;;;;;;7.25;2.25;;;;;;;;;;3366489;42;20844;-51
2022/07/07 04:49:34;;;;;;;9.77;2.40;;;;;;;;;;3366960;42;20075;-55
2022/07/07 04:52:00;;;;;;;7.72;2.40;;;;;;;;;;3366232;42;20110;-49
2022/07/07 04:54:26;;;;;;;6.30;2.17;;;;;;;;;;3367191;42;20664;-50
2022/07/07 04:56:52;;;;;;;8.20;2.60;;;;;;;;;;3367455;42;20087;-55
2022/07/07 04:59:18;;;;;;;13.23;3.30;;;;;;;;;;3353592;42;20091;-49
2022/07/07 05:01:44;;;;;;;6.32;2.50;;;;;;;;;;3367255;42;20171;-52
2022/07/07 05:04:10;;;;;;;5.88;2.40;;;;;;;;;;3367556;42;20180;-49
2022/07/07 05:06:36;;;;;;;7.97;2.30;;;;;;;;;;3366482;42;20155;-53
2022/07/07 05:09:02;;;;;;;5.95;2.58;;;;;;;;;;3367371;42;20166;-51
2022/07/07 05:11:28;;;;;;;6.72;2.50;;;;;;;;;;3367688;42;20131;-49
2022/07/07 05:13:54;;;;;;;7.72;2.53;;;;;;;;;;3367120;42;20162;-49
2022/07/07 05:16:20;;;;;;;7.77;2.40;;;;;;;;;;3367195;42;20080;-51
2022/07/07 05:18:46;;;;;;;5.60;2.20;;;;;;;;;;3367095;42;20094;-53
2022/07/07 05:21:12;;;;;;;5.32;2.08;;;;;;;;;;3367097;42;20080;-51
2022/07/07 05:23:38;;;;;;;8.80;2.47;;;;;;;;;;3366647;42;20079;-51
2022/07/07 05:26:04;;;;;;;7.93;2.30;;;;;;;;;;3365746;42;20103;-51
2022/07/07 05:28:30;;;;;;;5.57;2.33;;;;;;;;;;3366385;42;20588;-53
2022/07/07 05:30:56;;;;;;;13.35;2.90;;;;;;;;;;3366753;42;20519;-54
2022/07/07 05:33:22;;;;;;;7.25;2.20;;;;;;;;;;3366282;42;20114;-48
2022/07/07 05:35:48;;;;;;;8.70;2.33;;;;;;;;;;3366681;42;20506;-53
2022/07/07 05:38:14;;;;;;;5.47;2.38;;;;;;;;;;3366453;42;20099;-52
2022/07/07 05:40:40;;;;;;;6.75;2.30;;;;;;;;;;3366913;42;20079;-52
2022/07/07 05:43:06;;;;;;;8.00;2.23;;;;;;;;;;3357602;42;20547;-54
2022/07/07 05:45:32;;;;;;;6.13;2.25;;;;;;;;;;3374272;42;20206;-56
2022/07/07 05:47:58;;;;;;;6.60;2.45;;;;;;;;;;3375233;42;20084;-54
2022/07/07 05:50:24;;;;;;;8.13;2.47;;;;;;;;;;3376300;42;20117;-49
2022/07/07 05:52:50;;;;;;;6.93;2.40;;;;;;;;;;3367425;42;20166;-55
2022/07/07 05:55:16;;;;;;;8.57;2.35;;;;;;;;;;3370607;42;20092;-52
2022/07/07 05:57:42;;;;;;;7.50;2.42;;;;;;;;;;3369286;42;20127;-54
2022/07/07 06:00:08;;;;;;;6.47;2.45;;;;;;;;;;3370153;42;20106;-51
2022/07/07 06:02:34;;;;;;;5.60;2.67;;;;;;;;;;3370018;42;20096;-48
2022/07/07 06:05:00;;;;;;;5.90;2.58;;;;;;;;;;3353212;42;20094;-50
2022/07/07 06:07:26;;;;;;;7.82;2.50;;;;;;;;;;3369911;42;20146;-50
2022/07/07 06:09:52;;;;;;;6.47;2.40;;;;;;;;;;3370546;42;20080;-56
2022/07/07 06:12:18;;;;;;;6.43;2.50;;;;;;;;;;3369889;42;20593;-53
2022/07/07 06:14:44;;;;;;;6.18;2.70;;;;;;;;;;3369834;42;20328;-54
2022/07/07 06:17:10;;;;;;;8.35;2.70;;;;;;;;;;3370409;42;20079;-51
2022/07/07 06:19:36;;;;;;;12.43;3.38;;;;;;;;;;3368578;42;20098;-48
2022/07/07 06:22:02;;;;;;;6.97;2.53;;;;;;;;;;3369401;42;20115;-52
2022/07/07 06:24:28;;;;;;;8.65;2.67;;;;;;;;;;3365902;42;20095;-52
2022/07/07 06:26:55;;;;;;;5.68;2.10;;;;;;;;;;3365484;42;20079;-54
2022/07/07 06:29:21;;;;;;;8.73;2.33;;;;;;;;;;3365781;42;20080;-50
2022/07/07 06:31:47;;;;;;;7.40;2.73;;;;;;;;;;3366370;42;20162;-53
2022/07/07 06:34:13;;;;;;;8.18;2.50;;;;;;;;;;3366677;42;20475;-48
2022/07/07 06:36:39;;;;;;;6.57;2.33;;;;;;;;;;3366480;42;20178;-54
2022/07/07 06:39:05;;;;;;;7.70;2.30;;;;;;;;;;3364839;42;20517;-49
2022/07/07 06:41:35;;;;;;;5.63;2.50;;;;;;;;;;3367606;42;20075;-53
2022/07/07 06:44:02;;;;;;;7.40;2.45;;;;;;;;;;3367288;42;20098;-53
2022/07/07 06:46:28;;;;;;;7.72;2.42;;;;;;;;;;3358205;42;20083;-53
2022/07/07 06:48:54;;;;;;;8.57;2.90;;;;;;;;;;3366183;42;20103;-55
2022/07/07 06:51:20;;;;;;;8.57;2.50;;;;;;;;;;3366224;42;20165;-53
2022/07/07 06:53:46;;;;;;;7.22;2.53;;;;;;;;;;3366574;42;20152;-54
2022/07/07 06:56:13;;;;;;;9.27;2.40;;;;;;;;;;3366095;42;20084;-52
2022/07/07 06:58:39;;;;;;;7.43;2.58;;;;;;;;;;3366286;42;20088;-51
2022/07/07 07:01:05;;;;;;;5.50;2.40;;;;;;;;;;3365993;42;20100;-52
2022/07/07 07:03:31;;;;;;;6.07;2.30;;;;;;;;;;3365761;42;20097;-54
2022/07/07 07:05:57;;;;;;;6.78;2.40;;;;;;;;;;3366077;42;20097;-56
2022/07/07 07:08:23;;;;;;;6.22;2.65;;;;;;;;;;3365163;42;20086;-51
2022/07/07 07:10:49;;;;;;;6.40;2.20;;;;;;;;;;3366590;42;20096;-55
2022/07/07 07:13:15;;;;;;;8.45;2.20;;;;;;;;;;3365702;42;20139;-54
2022/07/07 07:15:41;;;;;;;6.47;2.17;;;;;;;;;;3365768;42;20500;-51
2022/07/07 07:18:06;;;;;;;5.90;2.15;;;;;;;;;;3366112;42;20083;-55
2022/07/07 07:20:33;;;;;;;5.13;2.10;;;;;;;;;;3366180;42;20096;-56
2022/07/07 07:22:58;;;;;;;5.53;2.10;;;;;;;;;;3350016;42;20142;-57
2022/07/07 07:25:24;;;;;;;9.73;2.42;;;;;;;;;;3366257;42;20088;-54
2022/07/07 07:27:50;;;;;;;7.13;2.03;;;;;;;;;;3367330;42;20170;-51
2022/07/07 07:30:16;;;;;;;5.97;2.47;;;;;;;;;;3370585;42;20342;-57
2022/07/07 07:32:43;;;;;;;5.25;2.38;;;;;;;;;;3369556;42;20142;-56
2022/07/07 07:35:09;;;;;;;7.07;2.50;;;;;;;;;;3371382;42;20170;-53
2022/07/07 07:37:38;;;;;;;7.07;2.30;;;;;;;;;;3369390;42;20956;-53
2022/07/07 07:40:06;;;;;;;5.60;2.10;;;;;;;;;;3362348;42;20131;-52
2022/07/07 07:42:32;;;;;;;7.78;2.00;;;;;;;;;;3359688;42;20119;-55
2022/07/07 07:45:10;;;;;;;6.07;2.47;;;;;;;;;;3372322;42;20092;-51
2022/07/07 07:47:43;;;;;;;6.50;2.30;;;;;;;;;;3376940;42;20234;-55
2022/07/07 07:50:12;;;;;;;7.33;2.20;;;;;;;;;;3372984;42;20119;-51
2022/07/07 07:52:40;;;;;;;5.93;2.22;;;;;;;;;;3367900;42;20095;-57
2022/07/07 07:55:07;;;;;;;5.88;2.20;;;;;;;;;;3367738;42;20119;-55
2022/07/07 07:57:33;;;;;;;6.22;2.65;;;;;;;;;;3359042;42;20088;-56
2022/07/07 07:59:59;;;;;;;5.95;2.50;;;;;;;;;;3358779;42;20143;-55
2022/07/07 08:02:25;;;;;;;5.57;2.17;;;;;;;;;;3367112;42;20103;-56
2022/07/07 08:04:51;;;;;;;7.53;2.42;;;;;;;;;;3367175;42;20088;-53
2022/07/07 08:07:17;;;;;;;6.68;2.53;;;;;;;;;;3368927;42;20118;-55
2022/07/07 08:09:44;;;;;;;7.97;2.50;;;;;;;;;;3367458;42;20092;-56
2022/07/07 08:12:10;;;;;;;9.52;2.50;;;;;;;;;;3370783;42;20570;-56
2022/07/07 08:14:36;;;;;;;6.35;2.35;;;;;;;;;;3370525;42;20668;-57
2022/07/07 08:17:02;;;;;;;7.28;2.40;;;;;;;;;;3368411;42;20152;-57
2022/07/07 08:19:28;;;;;;;7.35;2.40;;;;;;;;;;3375232;42;20095;-56
2022/07/07 08:21:54;;;;;;;6.77;2.60;;;;;;;;;;3376670;42;20099;-55
2022/07/07 08:24:19;;;;;;;6.47;2.58;;;;;;;;;;3376567;42;20542;-55
2022/07/07 08:26:45;;;;;;;5.75;2.30;;;;;;;;;;3376609;42;20154;-58
2022/07/07 08:29:11;;;;;;;7.60;2.70;;;;;;;;;;3376577;42;20088;-58
2022/07/07 08:31:37;;;;;;;5.72;2.45;;;;;;;;;;3376796;42;20087;-58
2022/07/07 08:34:03;;;;;;;8.23;2.60;;;;;;;;;;3367237;42;20517;-55
2022/07/07 08:36:32;;;;;;;5.75;2.33;;;;;;;;;;3367543;42;20645;-56
2022/07/07 08:38:58;;;;;;;6.63;2.40;;;;;;;;;;3376335;42;20099;-57
2022/07/07 08:41:25;;;;;;;7.20;2.80;;;;;;;;;;3376087;42;20095;-57
2022/07/07 08:43:51;;;;;;;7.28;3.10;;;;;;;;;;3376344;42;20115;-56
2022/07/07 08:46:17;;;;;;;7.18;2.85;;;;;;;;;;3375897;42;20080;-54
2022/07/07 08:48:43;;;;;;;9.23;2.70;;;;;;;;;;3367196;42;20098;-53
2022/07/07 08:51:09;;;;;;;6.80;2.90;;;;;;;;;;3376628;42;20549;-59
2022/07/07 08:53:36;;;;;;;7.28;3.08;;;;;;;;;;3376196;42;20110;-51
2022/07/07 08:56:08;;;;;;;6.55;3.05;;;;;;;;;;3375693;42;20150;-57
2022/07/07 08:58:35;;;;;;;7.68;3.92;;;;;;;;;;3376407;42;20083;-55
2022/07/07 09:01:02;;;;;;;7.27;3.10;;;;;;;;;;3367222;42;20148;-52
2022/07/07 09:03:28;;;;;;;8.15;3.30;;;;;;;;;;3367136;42;20084;-57
2022/07/07 09:05:56;;;;;;;7.80;3.10;;;;;;;;;;3376062;42;20113;-54
2022/07/07 09:08:22;;;;;;;7.90;3.10;;;;;;;;;;3360434;42;20530;-54
2022/07/07 09:10:48;;;;;;;7.03;3.17;;;;;;;;;;3366833;42;20462;-53
2022/07/07 09:13:25;;;;;;;6.70;3.47;;;;;;;;;;3366716;42;20088;-60
2022/07/07 09:16:01;;;;;;;9.07;3.67;;;;;;;;;;3367087;42;20088;-62
2022/07/07 09:18:37;;;;;;;9.55;3.65;;;;;;;;;;3366560;42;20114;-57
2022/07/07 09:21:04;;;;;;;8.18;3.78;;;;;;;;;;3367051;42;20083;-52
2022/07/07 09:23:30;;;;;;;8.55;3.60;;;;;;;;;;3358332;42;20604;-58
2022/07/07 09:25:57;;;;;;;7.20;3.50;;;;;;;;;;3358822;42;20095;-57
2022/07/07 09:28:23;;;;;;;6.95;3.55;;;;;;;;;;3367142;42;20088;-55
2022/07/07 09:30:49;;;;;;;11.43;3.58;;;;;;;;;;3351049;42;20582;-55
2022/07/07 09:33:19;;;;;;;9.63;3.22;;;;;;;;;;3367743;42;20574;-56
2022/07/07 09:38:31;;;;;;;7.28;3.30;;;;;;;;;;3360702;42;20091;-59
2022/07/07 09:41:08;;;;;;;8.60;3.38;;;;;;;;;;3368386;42;20106;-56
2022/07/07 09:43:46;;;;;;;10.27;3.35;;;;;;;;;;3358716;42;20092;-57
2022/07/07 09:46:24;;;;;;;11.43;3.38;;;;;;;;;;3367252;42;20135;-57
2022/07/07 09:48:53;;;;;;;7.50;2.93;;;;;;;;;;3367506;42;20084;-53
2022/07/07 09:51:21;;;;;;;6.85;3.40;;;;;;;;;;3367271;42;20170;-56
2022/07/07 09:54:05;;;;;;;7.45;3.25;;;;;;;;;;3368535;42;20103;-54
2022/07/07 09:56:37;;;;;;;7.22;2.80;;;;;;;;;;3367799;42;20543;-57
2022/07/07 09:59:08;;;;;;;6.93;2.90;;;;;;;;;;3367784;42;20084;-54
2022/07/07 10:01:38;;;;;;;8.17;3.00;;;;;;;;;;3369128;42;20087;-58
2022/07/07 10:04:06;;;;;;;8.68;3.00;;;;;;;;;;3362336;42;20088;-57
2022/07/07 10:06:33;;;;;;;7.43;2.97;;;;;;;;;;3375796;42;20114;-55
2022/07/07 10:09:10;;;;;;;7.00;3.10;;;;;;;;;;3371779;42;20147;-57
2022/07/07 10:11:43;;;;;;;7.78;3.10;;;;;;;;;;3369966;42;20090;-55
2022/07/07 10:14:33;;;;;;;7.40;3.20;;;;;;;;;;3363595;42;20470;-57
2022/07/07 10:16:59;;;;;;;8.90;3.42;;;;;;;;;;3375847;42;20080;-56
2022/07/07 10:19:25;;;;;;;7.75;3.10;;;;;;;;;;3361061;42;20222;-57
2022/07/07 10:21:55;;;;;;;6.72;3.13;;;;;;;;;;3371812;42;20157;-55
2022/07/07 10:24:23;;;;;;;6.88;3.03;;;;;;;;;;3373569;42;20139;-56
2022/07/07 10:26:50;;;;;;;7.00;3.10;;;;;;;;;;3366608;42;20165;-56
2022/07/07 10:29:16;;;;;;;9.15;3.53;;;;;;;;;;3366835;42;20540;-55
2022/07/07 10:31:49;;;;;;;9.00;3.53;;;;;;;;;;3360203;42;20093;-57
2022/07/07 10:34:15;;;;;;;9.82;3.15;;;;;;;;;;3368552;42;20088;-57
2022/07/07 10:36:50;;;;;;;8.98;3.42;;;;;;;;;;3372387;42;20136;-55
2022/07/07 10:39:27;;;;;;;6.60;2.90;;;;;;;;;;3373217;42;20230;-57
2022/07/07 10:42:14;;;;;;;7.47;3.40;;;;;;;;;;3364663;42;20111;-58
2022/07/07 10:44:51;;;;;;;7.47;3.00;;;;;;;;;;3373111;42;20084;-59
2022/07/07 10:47:17;;;;;;;8.00;3.42;;;;;;;;;;3363133;42;20091;-54
2022/07/07 10:49:47;;;;;;;7.30;3.00;;;;;;;;;;3365215;42;20797;-57
2022/07/07 10:52:14;;;;;;;7.78;3.20;;;;;;;;;;3360535;42;20079;-57
2022/07/07 10:54:43;;;;;;;7.95;2.85;;;;;;;;;;3372491;42;20664;-58
2022/07/07 10:57:09;;;;;;;7.15;2.90;;;;;;;;;;3364433;42;20164;-56
2022/07/07 11:00:08;;;;;;;7.60;3.00;;;;;;;;;;3360031;42;20106;-56
2022/07/07 11:02:47;;;;;;;7.43;3.27;;;;;;;;;;3366062;42;20095;-55
2022/07/07 11:05:12;;;;;;;8.98;3.00;;;;;;;;;;3366490;42;20155;-57
2022/07/07 11:07:39;;;;;;;6.72;2.83;;;;;;;;;;3365895;42;20190;-55
2022/07/07 11:10:06;;;;;;;6.75;3.00;;;;;;;;;;3366159;42;20095;-55
2022/07/07 11:12:48;;;;;;;9.23;3.30;;;;;;;;;;3367385;42;20131;-55
2022/07/07 11:15:33;;;;;;;10.25;3.20;;;;;;;;;;3368007;42;20131;-52
2022/07/07 11:18:09;;;;;;;6.38;3.10;;;;;;;;;;3367655;42;20181;-53
2022/07/07 11:20:35;;;;;;;7.88;3.20;;;;;;;;;;3374427;42;20143;-56
2022/07/07 11:23:10;;;;;;;6.88;3.13;;;;;;;;;;3376760;42;20117;-57
2022/07/07 11:25:37;;;;;;;7.37;2.87;;;;;;;;;;3374270;42;20098;-55
2022/07/07 11:28:07;;;;;;;10.48;3.22;;;;;;;;;;3368740;42;20110;-57
2022/07/07 11:30:33;;;;;;;8.10;3.33;;;;;;;;;;3368016;42;20103;-52
2022/07/07 11:32:59;;;;;;;10.98;3.63;;;;;;;;;;3358912;42;20079;-54
2022/07/07 11:35:40;;;;;;;6.50;2.78;;;;;;;;;;3367548;42;20559;-57
2022/07/07 11:38:08;;;;;;;6.63;3.10;;;;;;;;;;3368760;42;20120;-57
2022/07/07 11:40:34;;;;;;;7.10;2.90;;;;;;;;;;3373046;42;20091;-56
2022/07/07 11:43:05;;;;;;;7.88;3.15;;;;;;;;;;3366024;42;20095;-57
2022/07/07 11:45:31;;;;;;;6.20;2.90;;;;;;;;;;3369536;42;20088;-55
2022/07/07 11:48:07;;;;;;;7.82;2.88;;;;;;;;;;3374782;42;20106;-58
2022/07/07 11:50:34;;;;;;;9.73;3.13;;;;;;;;;;3368094;42;20182;-57
2022/07/07 11:53:02;;;;;;;6.97;3.00;;;;;;;;;;3350446;42;20128;-56
2022/07/07 11:55:28;;;;;;;8.25;3.10;;;;;;;;;;3358627;42;20592;-56
2022/07/07 11:57:58;;;;;;;8.30;3.30;;;;;;;;;;3369035;42;20553;-54
2022/07/07 12:00:29;;;;;;;7.72;3.10;;;;;;;;;;3371959;42;20088;-53
2022/07/07 12:03:02;;;;;;;8.03;3.40;;;;;;;;;;3371114;42;20095;-55
2022/07/07 12:05:31;;;;;;;6.30;3.00;;;;;;;;;;3368546;42;20169;-56
2022/07/07 12:07:58;;;;;;;6.90;3.00;;;;;;;;;;3358998;42;20080;-54
2022/07/07 12:10:27;;;;;;;8.63;2.78;;;;;;;;;;3371287;42;20550;-52
2022/07/07 12:13:01;;;;;;;7.65;2.92;;;;;;;;;;3376301;42;20094;-57
2022/07/07 12:15:28;;;;;;;9.57;2.80;;;;;;;;;;3375948;42;20142;-50
2022/07/07 12:17:54;;;;;;;6.70;3.08;;;;;;;;;;3376045;42;20079;-53
2022/07/07 12:20:20;;;;;;;6.60;2.90;;;;;;;;;;3376178;42;20166;-57
2022/07/07 12:22:57;;;;;;;7.22;2.63;;;;;;;;;;3375677;42;20569;-58
2022/07/07 12:25:24;;;;;;;9.38;2.90;;;;;;;;;;3375684;42;20103;-54
2022/07/07 12:28:00;;;;;;;8.13;3.87;;;;;;;;;;3376190;42;20079;-55
2022/07/07 12:30:30;;;;;;;8.05;3.75;;;;;;;;;;3376029;42;20096;-55
2022/07/07 12:32:56;;;;;;;7.13;3.42;;;;;;;;;;3375817;42;20139;-56
2022/07/07 12:35:33;;;;;;;7.70;3.25;;;;;;;;;;3367204;42;20098;-55
2022/07/07 12:38:04;;;;;;;7.18;2.92;;;;;;;;;;3376121;42;20084;-56
2022/07/07 12:40:31;;;;;;;8.17;3.10;;;;;;;;;;3375987;42;20145;-51
2022/07/07 12:42:58;;;;;;;9.30;2.92;;;;;;;;;;3367316;42;20087;-55
2022/07/07 12:45:24;;;;;;;6.75;3.05;;;;;;;;;;3376320;42;20091;-56
2022/07/07 12:47:54;;;;;;;7.47;2.80;;;;;;;;;;3368321;42;20080;-54
2022/07/07 12:50:22;;;;;;;7.85;2.90;;;;;;;;;;3368986;42;20102;-56
2022/07/07 12:53:05;;;;;;;6.60;3.00;;;;;;;;;;3376152;42;20095;-56
2022/07/07 12:55:44;;;;;;;9.52;2.70;;;;;;;;;;3376080;42;20580;-55
2022/07/07 12:58:12;;;;;;;8.35;2.80;;;;;;;;;;3375617;42;20575;-55
2022/07/07 13:00:39;;;;;;;7.38;3.00;;;;;;;;;;3376469;42;20712;-58
2022/07/07 13:03:06;;;;;;;7.97;2.80;;;;;;;;;;3367205;42;20172;-55
2022/07/07 13:05:32;;;;;;;5.73;2.70;;;;;;;;;;3376039;42;20146;-54
2022/07/07 13:07:58;;;;;;;7.13;3.05;;;;;;;;;;3375479;42;20090;-51
2022/07/07 13:10:25;;;;;;;7.88;2.95;;;;;;;;;;3376192;42;20083;-57
2022/07/07 13:12:52;;;;;;;7.53;2.67;;;;;;;;;;3358242;42;20118;-56
2022/07/07 13:15:18;;;;;;;8.85;2.80;;;;;;;;;;3366415;42;20131;-57
2022/07/07 13:17:46;;;;;;;8.93;3.20;;;;;;;;;;3367461;42;20091;-55
2022/07/07 13:20:12;;;;;;;6.40;3.00;;;;;;;;;;3366226;42;20098;-55
2022/07/07 13:22:41;;;;;;;7.78;3.00;;;;;;;;;;3358387;42;20165;-57
2022/07/07 13:25:08;;;;;;;16.65;4.03;;;;;;;;;;3366859;42;20147;-58
2022/07/07 13:27:34;;;;;;;7.60;3.00;;;;;;;;;;3366676;42;20102;-56
2022/07/07 13:30:00;;;;;;;8.87;3.10;;;;;;;;;;3358203;42;20582;-55
2022/07/07 13:32:26;;;;;;;7.30;2.90;;;;;;;;;;3365566;42;20497;-57
2022/07/07 13:34:52;;;;;;;6.70;3.20;;;;;;;;;;3366539;42;20558;-59
2022/07/07 13:37:18;;;;;;;6.65;2.90;;;;;;;;;;3358295;42;20096;-52
2022/07/07 13:39:44;;;;;;;9.35;3.35;;;;;;;;;;3367020;42;20103;-52
2022/07/07 13:42:10;;;;;;;8.23;3.10;;;;;;;;;;3366878;42;20091;-52
2022/07/07 13:44:37;;;;;;;7.07;2.92;;;;;;;;;;3367073;42;20135;-53
2022/07/07 13:47:03;;;;;;;6.43;2.83;;;;;;;;;;3366856;42;20154;-53
2022/07/07 13:49:30;;;;;;;9.07;3.92;;;;;;;;;;3366418;42;20099;-57
2022/07/07 13:51:56;;;;;;;7.93;3.33;;;;;;;;;;3367075;42;20475;-56
2022/07/07 13:54:26;;;;;;;7.25;3.10;;;;;;;;;;3357947;42;20178;-56
2022/07/07 13:56:52;;;;;;;6.68;3.28;;;;;;;;;;3366832;42;20170;-53
2022/07/07 13:59:18;;;;;;;10.80;3.70;;;;;;;;;;3366331;42;20102;-53
2022/07/07 14:01:44;;;;;;;8.65;3.67;;;;;;;;;;3366558;42;20092;-54
2022/07/07 14:04:10;;;;;;;8.37;3.60;;;;;;;;;;3366148;42;20173;-58
2022/07/07 14:06:36;;;;;;;11.18;3.50;;;;;;;;;;3366575;42;20079;-55
2022/07/07 14:09:02;;;;;;;8.48;3.28;;;;;;;;;;3366538;42;20471;-57
2022/07/07 14:11:28;;;;;;;7.35;3.40;;;;;;;;;;3366366;42;20513;-57
2022/07/07 14:13:54;;;;;;;8.63;3.73;;;;;;;;;;3357934;42;20601;-57
2022/07/07 14:16:20;;;;;;;8.38;3.45;;;;;;;;;;3365687;42;20092;-55
2022/07/07 14:18:46;;;;;;;7.03;3.17;;;;;;;;;;3366314;42;20560;-55
2022/07/07 14:21:12;;;;;;;9.32;3.80;;;;;;;;;;3366688;42;20139;-57
2022/07/07 14:23:38;;;;;;;8.73;3.60;;;;;;;;;;3366948;42;20613;-56
2022/07/07 14:26:04;;;;;;;7.90;3.30;;;;;;;;;;3357976;42;20165;-55
2022/07/07 14:28:30;;;;;;;7.95;3.40;;;;;;;;;;3366669;42;20091;-57
2022/07/07 14:30:56;;;;;;;8.00;3.10;;;;;;;;;;3366419;42;20080;-56
2022/07/07 14:33:22;;;;;;;9.40;3.67;;;;;;;;;;3366117;42;20076;-53
2022/07/07 14:35:48;;;;;;;6.90;3.10;;;;;;;;;;3366694;42;20185;-55
2022/07/07 14:38:13;;;;;;;7.28;3.10;;;;;;;;;;3365954;42;20098;-55
2022/07/07 14:40:39;;;;;;;7.97;3.10;;;;;;;;;;3366595;42;20182;-54
2022/07/07 14:43:06;;;;;;;8.15;3.40;;;;;;;;;;3366609;42;20104;-53
2022/07/07 14:45:31;;;;;;;8.30;3.20;;;;;;;;;;3364958;42;20147;-54
2022/07/07 14:47:57;;;;;;;9.18;3.40;;;;;;;;;;3365219;42;20229;-55